Time;durP1;ratioP1;P1;durP2;ratioP2;P2;SDS_P1;SDS_P2;PMS_P1;PMS_P2;Temp;Humidity;BMP_temperature;BMP_pressure;BME280_temperature;BME280_humidity;BME280_pressure;Samples;Min_cycle;Max_cycle;Signal;HPM_P1;HPM_P2
2021/12/26 00:01:26;;;;;;;0.00;0.00;;;-8.10;99.90;;;;;;4887880;29;20429;-65
2021/12/26 00:03:52;;;;;;;0.00;0.00;;;-8.10;99.90;;;;;;4886157;29;20077;-64
2021/12/26 00:06:25;;;;;;;0.00;0.00;;;-8.10;99.90;;;;;;4889099;29;20067;-66
2021/12/26 00:08:54;;;;;;;0.08;0.08;;;-8.10;99.90;;;;;;4887617;29;20072;-65
2021/12/26 00:11:19;;;;;;;0.00;0.00;;;-8.10;99.90;;;;;;4888368;29;20373;-65
2021/12/26 00:13:46;;;;;;;0.00;0.00;;;-8.10;99.90;;;;;;4888457;29;20048;-65
2021/12/26 00:16:12;;;;;;;0.08;0.08;;;-8.20;99.90;;;;;;4889759;29;20029;-66
2021/12/26 00:18:45;;;;;;;0.00;0.00;;;-8.20;99.90;;;;;;4888307;29;20032;-66
2021/12/26 00:21:11;;;;;;;0.00;0.00;;;-8.30;99.90;;;;;;4888447;29;20104;-65
2021/12/26 00:23:37;;;;;;;0.00;0.00;;;-8.20;99.90;;;;;;4889482;29;20039;-66
2021/12/26 00:26:03;;;;;;;0.00;0.00;;;-8.20;99.90;;;;;;4887256;29;20037;-65
2021/12/26 00:28:28;;;;;;;0.00;0.00;;;-8.20;99.90;;;;;;4889417;29;20060;-65
2021/12/26 00:30:54;;;;;;;0.00;0.00;;;-8.10;99.90;;;;;;4886837;29;20035;-65
2021/12/26 00:33:19;;;;;;;0.00;0.00;;;-8.10;99.90;;;;;;4886456;29;20041;-65
2021/12/26 00:35:45;;;;;;;0.00;0.00;;;-8.00;99.90;;;;;;4887427;29;20040;-68
2021/12/26 00:38:12;;;;;;;0.00;0.00;;;-8.10;99.90;;;;;;4888766;29;20036;-65
2021/12/26 00:40:38;;;;;;;0.00;0.00;;;-8.10;99.90;;;;;;4887300;29;20041;-65
2021/12/26 00:43:04;;;;;;;0.00;0.00;;;-8.10;99.90;;;;;;4887474;29;20057;-66
2021/12/26 00:45:30;;;;;;;0.00;0.00;;;-8.00;99.90;;;;;;4886857;29;20524;-66
2021/12/26 00:47:56;;;;;;;0.00;0.00;;;-8.10;99.90;;;;;;4885397;29;20039;-65
2021/12/26 00:50:24;;;;;;;0.00;0.00;;;-8.00;99.90;;;;;;4887215;29;20033;-65
2021/12/26 00:52:50;;;;;;;0.00;0.00;;;-8.00;99.90;;;;;;4887829;29;20739;-66
2021/12/26 00:55:17;;;;;;;0.00;0.00;;;-8.10;99.90;;;;;;4886404;29;20115;-65
2021/12/26 00:57:42;;;;;;;0.00;0.00;;;-8.20;99.90;;;;;;4889017;29;20044;-66
2021/12/26 01:00:18;;;;;;;0.00;0.00;;;-8.10;99.90;;;;;;4886955;29;20759;-65
2021/12/26 01:02:45;;;;;;;0.00;0.00;;;-8.10;99.90;;;;;;4889558;29;20035;-66
2021/12/26 01:05:11;;;;;;;0.00;0.00;;;-8.10;99.90;;;;;;4885297;29;20073;-65
2021/12/26 01:07:52;;;;;;;0.00;0.00;;;-8.10;99.90;;;;;;4893380;29;20392;-64
2021/12/26 01:10:20;;;;;;;0.00;0.00;;;-8.10;99.90;;;;;;4889072;29;20051;-65
2021/12/26 01:12:47;;;;;;;0.00;0.00;;;-8.10;99.90;;;;;;4897209;29;20037;-65
2021/12/26 01:15:12;;;;;;;0.00;0.00;;;-8.20;99.90;;;;;;4890760;29;20120;-65
2021/12/26 01:17:41;;;;;;;0.00;0.00;;;-8.20;99.90;;;;;;4886610;29;20168;-65
2021/12/26 01:20:13;;;;;;;0.00;0.00;;;-8.10;99.90;;;;;;4893819;29;20085;-66
2021/12/26 01:22:39;;;;;;;0.00;0.00;;;-8.20;99.90;;;;;;4896508;29;20048;-65
2021/12/26 01:25:07;;;;;;;0.00;0.00;;;-8.20;99.90;;;;;;4890463;29;20033;-65
2021/12/26 01:27:32;;;;;;;0.00;0.00;;;-8.20;99.90;;;;;;4876068;29;20120;-67
2021/12/26 01:29:59;;;;;;;0.00;0.00;;;-8.30;99.90;;;;;;4883033;29;20532;-66
2021/12/26 01:32:25;;;;;;;0.00;0.00;;;-8.30;99.90;;;;;;4896461;29;20037;-67
2021/12/26 01:34:51;;;;;;;0.00;0.00;;;-8.30;99.90;;;;;;4884331;29;20025;-64
2021/12/26 01:37:17;;;;;;;0.00;0.00;;;-8.30;99.90;;;;;;4889221;29;20396;-65
2021/12/26 01:39:42;;;;;;;0.00;0.00;;;-8.30;99.90;;;;;;4886004;29;20035;-65
2021/12/26 01:42:10;;;;;;;0.00;0.00;;;-8.40;99.90;;;;;;4896050;29;20036;-65
2021/12/26 01:44:37;;;;;;;0.00;0.00;;;-8.40;99.90;;;;;;4879728;29;20044;-65
2021/12/26 01:47:03;;;;;;;0.00;0.00;;;-8.40;99.90;;;;;;4888619;29;20480;-65
2021/12/26 01:49:32;;;;;;;0.00;0.00;;;-8.30;99.90;;;;;;4884603;29;20040;-65
2021/12/26 01:52:01;;;;;;;0.00;0.00;;;-8.30;99.90;;;;;;4896336;29;20123;-65
2021/12/26 01:54:38;;;;;;;0.00;0.00;;;-8.40;99.90;;;;;;4882958;29;20382;-65
2021/12/26 01:57:06;;;;;;;0.00;0.00;;;-8.40;99.90;;;;;;4878326;29;20029;-67
2021/12/26 01:59:32;;;;;;;0.10;0.10;;;-8.50;99.90;;;;;;4895328;29;20037;-65
2021/12/26 02:01:58;;;;;;;0.00;0.00;;;-8.50;99.90;;;;;;4872900;29;20025;-65
2021/12/26 02:04:28;;;;;;;0.00;0.00;;;-8.50;99.90;;;;;;4896525;29;20484;-66
2021/12/26 02:06:57;;;;;;;0.00;0.00;;;-8.50;99.90;;;;;;4891064;29;20033;-67
2021/12/26 02:09:23;;;;;;;0.00;0.00;;;-8.60;99.90;;;;;;4897029;29;20041;-66
2021/12/26 02:11:49;;;;;;;0.00;0.00;;;-8.50;99.90;;;;;;4892267;29;20032;-67
2021/12/26 02:14:14;;;;;;;0.00;0.00;;;-8.50;99.90;;;;;;4892441;29;20036;-67
2021/12/26 02:16:40;;;;;;;0.00;0.00;;;-8.50;99.90;;;;;;4879796;29;20533;-67
2021/12/26 02:19:05;;;;;;;0.00;0.00;;;-8.50;99.90;;;;;;4897002;29;20432;-63
2021/12/26 02:21:58;;;;;;;0.00;0.00;;;-8.50;99.90;;;;;;4894977;29;20033;-67
2021/12/26 02:24:28;;;;;;;0.00;0.00;;;-8.60;99.90;;;;;;4877364;29;20037;-67
2021/12/26 02:29:39;;;;;;;0.00;0.00;;;-8.70;99.90;;;;;;4896787;29;20067;-67
2021/12/26 02:32:05;;;;;;;0.00;0.00;;;-8.60;99.90;;;;;;4885116;29;20037;-67
2021/12/26 02:34:31;;;;;;;0.00;0.00;;;-8.50;99.90;;;;;;4879867;29;20041;-67
2021/12/26 02:36:56;;;;;;;0.00;0.00;;;-8.50;99.90;;;;;;4882577;29;20495;-67
2021/12/26 02:39:22;;;;;;;0.00;0.00;;;-8.60;99.90;;;;;;4883390;29;20028;-67
2021/12/26 02:41:48;;;;;;;0.00;0.00;;;-8.60;99.90;;;;;;4888495;29;20047;-67
2021/12/26 02:44:14;;;;;;;0.00;0.00;;;-8.60;99.90;;;;;;4887764;29;20035;-67
2021/12/26 02:46:40;;;;;;;0.00;0.00;;;-8.60;99.90;;;;;;4890724;29;20095;-67
2021/12/26 02:49:06;;;;;;;0.00;0.00;;;-8.60;99.90;;;;;;4889988;29;20049;-67
2021/12/26 02:51:32;;;;;;;0.00;0.00;;;-8.60;99.90;;;;;;4888855;29;20111;-67
2021/12/26 02:53:58;;;;;;;0.00;0.00;;;-8.60;99.90;;;;;;4890483;29;20104;-67
2021/12/26 02:56:24;;;;;;;0.00;0.00;;;-8.60;99.90;;;;;;4888632;29;20635;-64
2021/12/26 02:58:49;;;;;;;0.00;0.00;;;-8.60;99.90;;;;;;4887744;29;20473;-64
2021/12/26 03:01:18;;;;;;;0.00;0.00;;;-8.60;99.90;;;;;;4888135;29;20091;-68
2021/12/26 03:03:43;;;;;;;0.00;0.00;;;-8.50;99.90;;;;;;4891064;29;20025;-67
2021/12/26 03:06:23;;;;;;;0.00;0.00;;;-8.60;99.90;;;;;;4889058;29;20381;-65
2021/12/26 03:08:51;;;;;;;0.00;0.00;;;-8.60;99.90;;;;;;4891855;29;20033;-65
2021/12/26 03:11:17;;;;;;;0.00;0.00;;;-8.50;99.90;;;;;;4886358;29;20039;-65
2021/12/26 03:13:42;;;;;;;0.00;0.00;;;-8.50;99.90;;;;;;4884552;29;20041;-65
2021/12/26 03:16:08;;;;;;;0.00;0.00;;;-8.50;99.90;;;;;;4880070;29;20038;-64
2021/12/26 03:18:34;;;;;;;0.00;0.00;;;-8.50;99.90;;;;;;4884686;29;20077;-65
2021/12/26 03:20:59;;;;;;;0.00;0.00;;;-8.50;99.90;;;;;;4878615;29;20029;-66
2021/12/26 03:23:26;;;;;;;0.00;0.00;;;-8.50;99.90;;;;;;4880717;29;20037;-67
2021/12/26 03:25:58;;;;;;;0.00;0.00;;;-8.50;99.90;;;;;;4892096;29;20409;-67
2021/12/26 03:28:24;;;;;;;0.00;0.00;;;-8.50;99.90;;;;;;4885310;29;20041;-66
2021/12/26 03:30:51;;;;;;;0.00;0.00;;;-8.50;99.90;;;;;;4889793;29;20033;-67
2021/12/26 03:33:17;;;;;;;0.00;0.00;;;-8.50;99.90;;;;;;4891299;29;20572;-67
2021/12/26 03:35:44;;;;;;;0.00;0.00;;;-8.50;99.90;;;;;;4888477;29;20068;-66
2021/12/26 03:38:10;;;;;;;0.00;0.00;;;-8.40;99.90;;;;;;4890102;29;20128;-67
2021/12/26 03:40:37;;;;;;;0.00;0.00;;;-8.50;99.90;;;;;;4886690;29;20033;-67
2021/12/26 03:43:03;;;;;;;0.00;0.00;;;-8.50;99.90;;;;;;4891982;29;20028;-66
2021/12/26 03:45:29;;;;;;;0.00;0.00;;;-8.40;99.90;;;;;;4887997;29;20029;-66
2021/12/26 03:47:55;;;;;;;0.00;0.00;;;-8.50;99.90;;;;;;4890174;29;20043;-67
2021/12/26 03:50:22;;;;;;;0.00;0.00;;;-8.50;99.90;;;;;;4886034;29;20646;-67
2021/12/26 03:52:50;;;;;;;0.00;0.00;;;-8.50;99.90;;;;;;4892000;29;20037;-68
2021/12/26 03:55:17;;;;;;;0.00;0.00;;;-8.50;99.90;;;;;;4888892;29;20437;-67
2021/12/26 03:57:42;;;;;;;0.00;0.00;;;-8.50;99.90;;;;;;4889939;29;20040;-67
2021/12/26 04:00:09;;;;;;;0.00;0.00;;;-8.50;99.90;;;;;;4886904;29;20496;-65
2021/12/26 04:02:35;;;;;;;0.00;0.00;;;-8.50;99.90;;;;;;4890535;29;20477;-67
2021/12/26 04:05:01;;;;;;;0.00;0.00;;;-8.50;99.90;;;;;;4890201;29;20056;-67
2021/12/26 04:07:26;;;;;;;0.00;0.00;;;-8.60;99.90;;;;;;4889287;29;20072;-67
2021/12/26 04:09:52;;;;;;;0.00;0.00;;;-8.50;99.90;;;;;;4888428;29;20029;-64
2021/12/26 04:12:17;;;;;;;0.00;0.00;;;-8.40;99.90;;;;;;4887925;29;20384;-68
2021/12/26 04:14:43;;;;;;;0.00;0.00;;;-8.40;99.90;;;;;;4889533;29;20099;-66
2021/12/26 04:17:08;;;;;;;0.00;0.00;;;-8.40;99.90;;;;;;4889355;29;20024;-66
2021/12/26 04:19:34;;;;;;;0.00;0.00;;;-8.50;99.90;;;;;;4889524;29;20588;-66
2021/12/26 04:22:00;;;;;;;0.00;0.00;;;-8.50;99.90;;;;;;4888947;29;20059;-67
2021/12/26 04:24:26;;;;;;;0.00;0.00;;;-8.50;99.90;;;;;;4887869;29;20033;-67
2021/12/26 04:26:51;;;;;;;0.00;0.00;;;-8.60;99.90;;;;;;4887249;29;20481;-64
2021/12/26 04:29:17;;;;;;;0.00;0.00;;;-8.60;99.90;;;;;;4886500;29;20036;-65
2021/12/26 04:31:42;;;;;;;0.00;0.00;;;-8.50;99.90;;;;;;4888089;29;20029;-64
2021/12/26 04:34:08;;;;;;;0.00;0.00;;;-8.50;99.90;;;;;;4887918;29;20055;-65
2021/12/26 04:36:33;;;;;;;0.00;0.00;;;-8.40;99.90;;;;;;4890176;29;20630;-64
2021/12/26 04:38:59;;;;;;;0.00;0.00;;;-8.40;99.90;;;;;;4886069;29;20033;-65
2021/12/26 04:41:24;;;;;;;0.00;0.00;;;-8.40;99.90;;;;;;4887512;29;20033;-64
2021/12/26 04:43:50;;;;;;;0.00;0.00;;;-8.50;99.90;;;;;;4886413;29;20044;-66
2021/12/26 04:46:15;;;;;;;0.00;0.00;;;-8.50;99.90;;;;;;4886623;29;20036;-66
2021/12/26 04:48:44;;;;;;;0.00;0.00;;;-8.40;99.90;;;;;;4888015;29;20123;-67
2021/12/26 04:51:11;;;;;;;0.00;0.00;;;-8.40;99.90;;;;;;4888406;29;20033;-66
2021/12/26 04:53:38;;;;;;;0.00;0.00;;;-8.40;99.90;;;;;;4887848;29;20036;-67
2021/12/26 04:56:05;;;;;;;0.00;0.00;;;-8.40;99.90;;;;;;4888805;29;20039;-66
2021/12/26 04:58:30;;;;;;;0.00;0.00;;;-8.40;99.90;;;;;;4886515;29;20377;-67
2021/12/26 05:00:56;;;;;;;0.00;0.00;;;-8.40;99.90;;;;;;4887319;29;20076;-67
2021/12/26 05:03:22;;;;;;;0.00;0.00;;;-8.30;99.90;;;;;;4889444;29;20036;-66
2021/12/26 05:05:47;;;;;;;0.00;0.00;;;-8.30;99.90;;;;;;4888237;29;20460;-66
2021/12/26 05:08:13;;;;;;;0.10;0.10;;;-8.40;99.90;;;;;;4886044;29;20063;-67
2021/12/26 05:10:39;;;;;;;0.00;0.00;;;-8.40;99.90;;;;;;4886182;29;20032;-67
2021/12/26 05:13:05;;;;;;;0.00;0.00;;;-8.40;99.90;;;;;;4888360;29;20033;-65
2021/12/26 05:15:31;;;;;;;0.00;0.00;;;-8.40;99.90;;;;;;4887449;29;20132;-67
2021/12/26 05:17:57;;;;;;;0.00;0.00;;;-8.40;99.90;;;;;;4886562;29;20029;-66
2021/12/26 05:20:25;;;;;;;0.00;0.00;;;-8.40;99.90;;;;;;4885983;29;20037;-67
2021/12/26 05:22:53;;;;;;;0.00;0.00;;;-8.40;99.90;;;;;;4887039;29;20033;-67
2021/12/26 05:25:20;;;;;;;0.00;0.00;;;-8.50;99.90;;;;;;4887967;29;20028;-66
2021/12/26 05:27:46;;;;;;;0.00;0.00;;;-8.60;99.90;;;;;;4888307;29;20177;-67
2021/12/26 05:30:15;;;;;;;0.00;0.00;;;-8.60;99.90;;;;;;4886585;29;20396;-67
2021/12/26 05:32:41;;;;;;;0.00;0.00;;;-8.60;99.90;;;;;;4885043;29;20025;-67
2021/12/26 05:35:08;;;;;;;0.00;0.00;;;-8.60;99.90;;;;;;4886582;29;20061;-65
2021/12/26 05:37:34;;;;;;;0.00;0.00;;;-8.60;99.90;;;;;;4893530;29;20033;-68
2021/12/26 05:40:02;;;;;;;0.00;0.00;;;-8.60;99.90;;;;;;4890854;29;20072;-66
2021/12/26 05:42:28;;;;;;;0.00;0.00;;;-8.60;99.90;;;;;;4889119;29;20061;-67
2021/12/26 05:44:54;;;;;;;0.00;0.00;;;-8.70;99.90;;;;;;4883238;29;20459;-65
2021/12/26 05:47:19;;;;;;;0.00;0.00;;;-8.70;99.90;;;;;;4887523;29;20128;-65
2021/12/26 05:49:45;;;;;;;0.00;0.00;;;-8.70;99.90;;;;;;4884870;29;20133;-67
2021/12/26 05:52:11;;;;;;;0.00;0.00;;;-8.70;99.90;;;;;;4887607;29;20036;-67
2021/12/26 05:54:36;;;;;;;0.00;0.00;;;-8.80;99.90;;;;;;4884452;29;20063;-64
2021/12/26 05:57:03;;;;;;;0.00;0.00;;;-8.80;99.90;;;;;;4890493;29;20112;-67
2021/12/26 05:59:28;;;;;;;0.10;0.10;;;-8.90;99.90;;;;;;4887051;29;20033;-65
2021/12/26 06:01:54;;;;;;;0.00;0.00;;;-8.90;99.90;;;;;;4887631;29;20120;-65
2021/12/26 06:04:19;;;;;;;0.00;0.00;;;-9.00;99.90;;;;;;4886487;29;20036;-65
2021/12/26 06:06:45;;;;;;;0.00;0.00;;;-9.00;99.90;;;;;;4886311;29;20040;-65
2021/12/26 06:09:11;;;;;;;0.00;0.00;;;-9.00;99.90;;;;;;4883867;29;20041;-68
2021/12/26 06:11:37;;;;;;;0.00;0.00;;;-9.00;99.90;;;;;;4889456;29;20031;-65
2021/12/26 06:14:03;;;;;;;0.00;0.00;;;-9.00;99.90;;;;;;4885563;29;20501;-64
2021/12/26 06:16:28;;;;;;;0.00;0.00;;;-9.00;99.90;;;;;;4887634;29;20025;-65
2021/12/26 06:18:54;;;;;;;0.00;0.00;;;-9.00;99.90;;;;;;4891198;29;20111;-65
2021/12/26 06:21:19;;;;;;;0.00;0.00;;;-9.10;99.90;;;;;;4889148;29;20036;-64
2021/12/26 06:23:50;;;;;;;0.00;0.00;;;-9.00;99.90;;;;;;4894130;29;20058;-65
2021/12/26 06:26:24;;;;;;;0.00;0.00;;;-9.00;99.90;;;;;;4890615;29;20025;-65
2021/12/26 06:28:50;;;;;;;0.00;0.00;;;-8.90;99.90;;;;;;4890862;29;20031;-64
2021/12/26 06:31:15;;;;;;;0.00;0.00;;;-8.90;99.90;;;;;;4889726;29;20037;-65
2021/12/26 06:33:41;;;;;;;0.00;0.00;;;-9.00;99.90;;;;;;4892061;29;20033;-65
2021/12/26 06:36:09;;;;;;;0.00;0.00;;;-9.00;99.90;;;;;;4891736;29;20029;-65
2021/12/26 06:38:39;;;;;;;0.00;0.00;;;-9.00;99.90;;;;;;4889541;29;20407;-66
2021/12/26 06:41:05;;;;;;;0.00;0.00;;;-9.00;99.90;;;;;;4890152;29;20032;-65
2021/12/26 06:43:32;;;;;;;0.00;0.00;;;-9.10;99.90;;;;;;4890714;29;20029;-64
2021/12/26 06:45:57;;;;;;;0.00;0.00;;;-9.00;99.90;;;;;;4891238;29;20029;-65
2021/12/26 06:48:23;;;;;;;0.00;0.00;;;-9.10;99.90;;;;;;4889430;29;20032;-65
2021/12/26 06:50:49;;;;;;;0.00;0.00;;;-9.10;99.90;;;;;;4888110;29;20048;-65
2021/12/26 06:53:15;;;;;;;0.00;0.00;;;-9.10;99.90;;;;;;4888197;29;20370;-65
2021/12/26 06:55:42;;;;;;;0.00;0.00;;;-9.10;99.90;;;;;;4890188;29;20111;-64
2021/12/26 06:58:08;;;;;;;0.00;0.00;;;-9.20;99.90;;;;;;4889307;29;20484;-64
2021/12/26 07:00:34;;;;;;;0.00;0.00;;;-9.20;99.90;;;;;;4889998;29;20067;-64
2021/12/26 07:02:59;;;;;;;0.00;0.00;;;-9.20;99.90;;;;;;4898652;29;20029;-64
2021/12/26 07:05:25;;;;;;;0.00;0.00;;;-9.20;99.90;;;;;;4890725;29;20487;-65
2021/12/26 07:07:52;;;;;;;0.00;0.00;;;-9.20;99.90;;;;;;4891373;29;20048;-64
2021/12/26 07:10:17;;;;;;;0.00;0.00;;;-9.20;99.90;;;;;;4887762;29;20033;-65
2021/12/26 07:12:44;;;;;;;0.00;0.00;;;-9.30;99.90;;;;;;4889773;29;20693;-65
2021/12/26 07:15:11;;;;;;;0.00;0.00;;;-9.20;99.90;;;;;;4888965;29;20025;-65
2021/12/26 07:17:37;;;;;;;0.00;0.00;;;-9.20;99.90;;;;;;4889663;29;20112;-65
2021/12/26 07:20:04;;;;;;;0.00;0.00;;;-9.20;99.90;;;;;;4889020;29;20171;-65
2021/12/26 07:22:30;;;;;;;0.03;0.03;;;-9.20;99.90;;;;;;4890339;29;20039;-64
2021/12/26 07:24:55;;;;;;;0.00;0.00;;;-9.10;99.90;;;;;;4889432;29;20032;-65
2021/12/26 07:27:22;;;;;;;0.00;0.00;;;-9.10;99.90;;;;;;4890602;29;20037;-66
2021/12/26 07:29:48;;;;;;;0.05;0.05;;;-9.20;99.90;;;;;;4886318;29;20048;-65
2021/12/26 07:32:13;;;;;;;0.00;0.00;;;-9.10;99.90;;;;;;4888191;29;20039;-65
2021/12/26 07:34:40;;;;;;;0.00;0.00;;;-9.10;99.90;;;;;;4890849;29;20376;-65
2021/12/26 07:37:06;;;;;;;0.00;0.00;;;-9.10;99.90;;;;;;4889304;29;20041;-65
2021/12/26 07:39:31;;;;;;;0.00;0.00;;;-9.10;99.90;;;;;;4886412;29;20116;-65
2021/12/26 07:41:57;;;;;;;0.00;0.00;;;-9.00;99.90;;;;;;4887999;29;20136;-65
2021/12/26 07:44:23;;;;;;;0.00;0.00;;;-9.00;99.90;;;;;;4882666;29;20041;-65
2021/12/26 07:46:49;;;;;;;0.10;0.10;;;-8.90;99.90;;;;;;4880438;29;20033;-65
2021/12/26 07:49:15;;;;;;;0.00;0.00;;;-8.90;99.90;;;;;;4895386;29;20053;-65
2021/12/26 07:51:41;;;;;;;0.00;0.00;;;-8.90;99.90;;;;;;4892748;29;20037;-65
2021/12/26 07:54:06;;;;;;;0.00;0.00;;;-8.90;99.90;;;;;;4893708;29;20061;-64
2021/12/26 07:56:32;;;;;;;0.00;0.00;;;-8.80;99.90;;;;;;4889878;29;20032;-64
2021/12/26 07:58:58;;;;;;;0.00;0.00;;;-8.80;99.90;;;;;;4887752;29;20043;-64
2021/12/26 08:01:28;;;;;;;0.00;0.00;;;-8.80;99.90;;;;;;4888267;29;20037;-66
2021/12/26 08:03:54;;;;;;;0.00;0.00;;;-8.70;99.90;;;;;;4887183;29;20124;-66
2021/12/26 08:06:20;;;;;;;0.00;0.00;;;-8.70;99.90;;;;;;4884050;29;20115;-65
2021/12/26 08:08:47;;;;;;;0.00;0.00;;;-8.70;99.90;;;;;;4887037;29;20044;-66
2021/12/26 08:11:13;;;;;;;0.00;0.00;;;-8.70;99.90;;;;;;4888805;29;20047;-65
2021/12/26 08:13:38;;;;;;;0.00;0.00;;;-8.70;99.90;;;;;;4888103;29;20029;-65
2021/12/26 08:16:05;;;;;;;0.00;0.00;;;-8.70;99.90;;;;;;4886003;29;20045;-65
2021/12/26 08:18:30;;;;;;;0.00;0.00;;;-8.70;99.90;;;;;;4892665;29;20104;-65
2021/12/26 08:20:56;;;;;;;0.00;0.00;;;-8.60;99.90;;;;;;4886038;29;20033;-65
2021/12/26 08:23:22;;;;;;;0.00;0.00;;;-8.60;99.90;;;;;;4889162;29;20037;-65
2021/12/26 08:25:48;;;;;;;0.00;0.00;;;-8.50;99.90;;;;;;4887977;29;20032;-65
2021/12/26 08:28:14;;;;;;;0.00;0.00;;;-8.40;99.90;;;;;;4886419;29;20033;-65
2021/12/26 08:30:41;;;;;;;0.00;0.00;;;-8.40;99.90;;;;;;4888016;29;20037;-65
2021/12/26 08:33:07;;;;;;;0.00;0.00;;;-8.30;99.90;;;;;;4884829;29;20033;-65
2021/12/26 08:35:34;;;;;;;0.00;0.00;;;-8.20;99.90;;;;;;4885881;29;20063;-65
2021/12/26 08:38:01;;;;;;;0.00;0.00;;;-8.00;99.90;;;;;;4888819;29;20041;-65
2021/12/26 08:40:26;;;;;;;0.00;0.00;;;-7.70;99.90;;;;;;4886957;29;20056;-65
2021/12/26 08:42:52;;;;;;;0.00;0.00;;;-7.60;99.90;;;;;;4889825;29;20072;-65
2021/12/26 08:45:18;;;;;;;0.00;0.00;;;-7.40;99.90;;;;;;4885074;29;20088;-65
2021/12/26 08:47:43;;;;;;;0.00;0.00;;;-7.30;99.90;;;;;;4888961;29;20469;-65
2021/12/26 08:50:10;;;;;;;0.00;0.00;;;-7.10;99.90;;;;;;4885653;29;20545;-66
2021/12/26 08:52:38;;;;;;;0.08;0.08;;;-7.00;99.90;;;;;;4889101;29;20067;-65
2021/12/26 08:55:04;;;;;;;0.00;0.00;;;-6.90;99.90;;;;;;4886280;29;20037;-66
2021/12/26 08:57:30;;;;;;;0.00;0.00;;;-6.70;99.90;;;;;;4883743;29;20037;-66
2021/12/26 08:59:56;;;;;;;0.00;0.00;;;-6.70;99.90;;;;;;4879717;29;20156;-66
2021/12/26 09:02:23;;;;;;;0.00;0.00;;;-6.60;99.90;;;;;;4874694;29;20036;-66
2021/12/26 09:04:49;;;;;;;0.00;0.00;;;-6.50;99.90;;;;;;4876139;29;20037;-65
2021/12/26 09:07:14;;;;;;;0.00;0.00;;;-6.40;99.90;;;;;;4879281;29;20084;-65
2021/12/26 09:09:41;;;;;;;0.00;0.00;;;-6.30;99.90;;;;;;4875377;29;20037;-65
2021/12/26 09:12:07;;;;;;;0.00;0.00;;;-6.20;99.90;;;;;;4873797;29;20169;-65
2021/12/26 09:14:33;;;;;;;0.00;0.00;;;-6.20;99.90;;;;;;4877522;29;20037;-66
2021/12/26 09:17:00;;;;;;;0.00;0.00;;;-6.00;99.90;;;;;;4881043;29;20051;-66
2021/12/26 09:19:28;;;;;;;0.00;0.00;;;-5.90;99.90;;;;;;4873723;29;20032;-67
2021/12/26 09:21:58;;;;;;;0.05;0.05;;;-5.70;99.90;;;;;;4878030;29;20049;-67
2021/12/26 09:24:24;;;;;;;0.00;0.00;;;-5.80;99.90;;;;;;4876628;29;20041;-67
2021/12/26 09:26:50;;;;;;;0.00;0.00;;;-5.70;99.90;;;;;;4879336;29;20055;-67
2021/12/26 09:29:15;;;;;;;0.00;0.00;;;-5.60;99.90;;;;;;4877306;29;20041;-68
2021/12/26 09:31:41;;;;;;;0.00;0.00;;;-5.60;99.90;;;;;;4879405;29;20025;-68
2021/12/26 09:34:06;;;;;;;0.00;0.00;;;-5.50;99.90;;;;;;4878933;29;20322;-69
2021/12/26 09:36:32;;;;;;;0.00;0.00;;;-5.30;99.90;;;;;;4878774;29;20124;-69
2021/12/26 09:38:58;;;;;;;0.08;0.08;;;-5.30;99.90;;;;;;4877629;29;20033;-69
2021/12/26 09:41:24;;;;;;;0.00;0.00;;;-5.20;99.90;;;;;;4878025;29;20040;-70
2021/12/26 09:43:49;;;;;;;0.00;0.00;;;-5.20;99.90;;;;;;4878767;29;20038;-70
2021/12/26 09:46:15;;;;;;;0.00;0.00;;;-5.20;99.90;;;;;;4879347;29;20037;-70
2021/12/26 09:48:40;;;;;;;0.00;0.00;;;-5.10;99.90;;;;;;4878739;29;20068;-70
2021/12/26 09:51:06;;;;;;;0.00;0.00;;;-5.10;99.90;;;;;;4880943;29;20043;-69
2021/12/26 09:53:39;;;;;;;0.00;0.00;;;-5.00;99.90;;;;;;4877426;29;20124;-70
2021/12/26 09:56:06;;;;;;;0.00;0.00;;;-5.10;99.90;;;;;;4878334;29;20060;-69
2021/12/26 09:58:34;;;;;;;0.00;0.00;;;-4.90;99.90;;;;;;4878669;29;20119;-69
2021/12/26 10:01:00;;;;;;;0.00;0.00;;;-4.80;99.90;;;;;;4879315;29;20401;-68
2021/12/26 10:03:33;;;;;;;0.00;0.00;;;-4.70;99.90;;;;;;4880091;29;20029;-69
2021/12/26 10:06:13;;;;;;;0.00;0.00;;;-4.60;99.90;;;;;;4883408;29;20033;-70
2021/12/26 10:08:55;;;;;;;0.00;0.00;;;-4.70;99.90;;;;;;4897761;29;20088;-69
2021/12/26 10:11:25;;;;;;;0.00;0.00;;;-4.70;99.90;;;;;;4896332;29;20036;-70
2021/12/26 10:13:54;;;;;;;0.00;0.00;;;-4.60;99.90;;;;;;4888629;29;20089;-70
2021/12/26 10:16:23;;;;;;;0.00;0.00;;;-4.40;99.90;;;;;;4897125;29;20060;-70
2021/12/26 10:18:49;;;;;;;0.00;0.00;;;-4.30;99.90;;;;;;4883945;29;20519;-70
2021/12/26 10:21:30;;;;;;;0.00;0.00;;;-4.20;99.90;;;;;;4885218;29;20029;-70
2021/12/26 10:24:14;;;;;;;0.00;0.00;;;-4.10;99.90;;;;;;4873993;29;20140;-70
2021/12/26 10:26:46;;;;;;;0.00;0.00;;;-4.10;99.90;;;;;;4896944;29;20396;-72
2021/12/26 10:29:18;;;;;;;0.00;0.00;;;-3.90;99.90;;;;;;4893523;29;20119;-71
2021/12/26 10:31:51;;;;;;;0.00;0.00;;;-3.80;99.90;;;;;;4887432;29;20033;-72
2021/12/26 10:34:19;;;;;;;;;;;-3.80;99.90;;;;;;4885055;29;20036;-72
2021/12/26 10:36:47;;;;;;;0.00;0.00;;;-3.70;99.90;;;;;;4896888;29;20006;-74
2021/12/26 10:39:17;;;;;;;0.00;0.00;;;-3.60;99.90;;;;;;4896841;29;20396;-72
2021/12/26 10:41:48;;;;;;;0.00;0.00;;;-3.50;99.90;;;;;;4872349;29;20025;-71
2021/12/26 10:44:26;;;;;;;0.00;0.00;;;-3.60;99.90;;;;;;4895522;29;20041;-73
2021/12/26 10:46:54;;;;;;;0.00;0.00;;;-3.40;99.90;;;;;;4880833;29;20064;-73
2021/12/26 10:49:33;;;;;;;0.00;0.00;;;-3.30;99.90;;;;;;4893518;29;20040;-74
2021/12/26 10:52:01;;;;;;;0.00;0.00;;;-3.20;99.90;;;;;;4896146;29;20089;-74
2021/12/26 10:54:31;;;;;;;0.00;0.00;;;-3.10;99.90;;;;;;4896497;29;20056;-74
2021/12/26 10:57:26;;;;;;;0.00;0.00;;;-3.00;99.90;;;;;;4896738;29;20028;-73
2021/12/26 11:00:25;;;;;;;0.00;0.00;;;-2.90;99.90;;;;;;4879602;29;20524;-71
2021/12/26 11:02:55;;;;;;;0.00;0.00;;;-2.90;99.90;;;;;;4867161;29;20401;-73
2021/12/26 11:05:35;;;;;;;0.00;0.00;;;-3.00;99.90;;;;;;4893869;29;20037;-72
2021/12/26 11:08:04;;;;;;;0.00;0.00;;;-3.00;99.90;;;;;;4899599;29;20033;-72
2021/12/26 11:10:45;;;;;;;0.00;0.00;;;-3.00;99.90;;;;;;4899331;29;20036;-75
2021/12/26 11:13:28;;;;;;;0.00;0.00;;;-3.00;99.90;;;;;;4899869;29;20048;-73
2021/12/26 11:15:58;;;;;;;0.00;0.00;;;-3.10;99.90;;;;;;4899983;29;20029;-71
2021/12/26 11:18:25;;;;;;;0.00;0.00;;;-3.00;99.90;;;;;;4898684;29;20143;-72
2021/12/26 11:20:56;;;;;;;0.00;0.00;;;-3.00;99.90;;;;;;4888172;29;20484;-74
2021/12/26 11:23:33;;;;;;;0.00;0.00;;;-3.10;99.90;;;;;;4899775;29;20040;-74
2021/12/26 11:26:21;;;;;;;0.00;0.00;;;-3.10;99.90;;;;;;4899742;29;20024;-72
2021/12/26 11:28:49;;;;;;;0.00;0.00;;;-3.20;99.90;;;;;;4899117;29;20041;-72
2021/12/26 11:31:19;;;;;;;0.00;0.00;;;-3.20;99.90;;;;;;4898936;29;20047;-72
2021/12/26 11:33:48;;;;;;;0.00;0.00;;;-3.30;99.90;;;;;;4899637;29;20392;-71
2021/12/26 11:36:14;;;;;;;0.00;0.00;;;-3.30;99.90;;;;;;4887052;29;20067;-72
2021/12/26 11:38:40;;;;;;;0.00;0.00;;;-3.30;99.90;;;;;;4899336;29;20069;-71
2021/12/26 11:41:22;;;;;;;0.00;0.00;;;-3.30;99.90;;;;;;4898416;29;20044;-72
2021/12/26 11:43:56;;;;;;;0.00;0.00;;;-3.30;99.90;;;;;;4899505;29;20120;-71
2021/12/26 11:46:25;;;;;;;0.00;0.00;;;-3.30;99.90;;;;;;4881296;29;20040;-72
2021/12/26 11:48:59;;;;;;;0.00;0.00;;;-3.30;99.90;;;;;;4880991;29;20505;-71
2021/12/26 11:51:58;;;;;;;0.00;0.00;;;-3.30;99.90;;;;;;4880817;29;20116;-71
2021/12/26 11:54:53;;;;;;;0.00;0.00;;;-3.30;99.90;;;;;;4879315;29;20039;-71
2021/12/26 11:57:45;;;;;;;0.00;0.00;;;-3.20;99.90;;;;;;4878367;29;20112;-70
2021/12/26 12:00:19;;;;;;;0.00;0.00;;;-3.20;99.90;;;;;;4879198;29;20029;-71
2021/12/26 12:02:53;;;;;;;0.00;0.00;;;-3.10;99.90;;;;;;4879894;29;20080;-71
2021/12/26 12:05:24;;;;;;;0.00;0.00;;;-3.10;99.90;;;;;;4880485;29;20062;-71
2021/12/26 12:08:00;;;;;;;0.00;0.00;;;-3.10;99.90;;;;;;4879276;29;20028;-72
2021/12/26 12:10:52;;;;;;;0.00;0.00;;;-3.10;99.90;;;;;;4878904;29;20040;-72
2021/12/26 12:13:26;;;;;;;0.00;0.00;;;-3.00;99.90;;;;;;4880544;29;20032;-71
2021/12/26 12:15:58;;;;;;;0.00;0.00;;;-3.10;99.90;;;;;;4880562;29;20035;-71
2021/12/26 12:18:30;;;;;;;0.00;0.00;;;-3.00;99.90;;;;;;4881291;29;20509;-71
2021/12/26 12:21:12;;;;;;;0.00;0.00;;;-3.00;99.90;;;;;;4876519;29;20430;-71
2021/12/26 12:24:05;;;;;;;0.00;0.00;;;-3.00;99.90;;;;;;4879857;29;20040;-71
2021/12/26 12:26:38;;;;;;;0.00;0.00;;;-3.00;99.90;;;;;;4881804;29;20053;-71
2021/12/26 12:29:03;;;;;;;0.00;0.00;;;-3.00;99.90;;;;;;4878302;29;20044;-71
2021/12/26 12:31:30;;;;;;;0.00;0.00;;;-2.90;99.90;;;;;;4879107;29;20045;-71
2021/12/26 12:34:09;;;;;;;0.00;0.00;;;-2.80;99.90;;;;;;4879729;29;20039;-71
2021/12/26 12:36:38;;;;;;;0.00;0.00;;;-2.80;99.90;;;;;;4880397;29;20028;-72
2021/12/26 12:39:22;;;;;;;0.00;0.00;;;-2.80;99.90;;;;;;4880692;29;20444;-71
2021/12/26 12:41:54;;;;;;;0.00;0.00;;;-2.70;99.90;;;;;;4876732;29;20561;-71
2021/12/26 12:44:35;;;;;;;0.00;0.00;;;-2.70;99.90;;;;;;4876756;29;20266;-71
2021/12/26 12:47:05;;;;;;;0.00;0.00;;;-2.70;99.90;;;;;;4877274;29;20378;-71
2021/12/26 12:49:51;;;;;;;0.00;0.00;;;-2.60;99.90;;;;;;4881076;29;20421;-72
2021/12/26 12:52:36;;;;;;;0.00;0.00;;;-2.60;99.90;;;;;;4888455;29;20095;-70
2021/12/26 12:55:04;;;;;;;0.00;0.00;;;-2.60;99.90;;;;;;4887348;29;20037;-71
2021/12/26 12:57:39;;;;;;;0.00;0.00;;;-2.50;99.90;;;;;;4888169;29;20429;-71